Terminal Aerodrome Forecast
Issued by NWS Shreveport, LA

Home | Current Version | Previous Version | Text Only | Print | Product List | Glossary On
Versions: 1 2 3 4 5 6 7 8 9 10 11 12 13 14 15 16 17 18
000
FTUS44 KSHV 291100
TAFTYR
TAF
KTYR 291140Z 2912/3012 VRB03KT P6SM OVC004
     FM291500 13005KT P6SM BKN015
     FM291800 11005KT P6SM SCT025 SCT250
     FM300900 05005KT P6SM OVC007=

USA.gov is the U.S. government's official web portal to all federal, state and local government web resources and services.